createdAt,value
2022-10-22T00:01:00.113Z,7.10
2022-10-22T00:03:26.586Z,6.68
2022-10-22T00:05:53.005Z,5.88
2022-10-22T00:08:19.456Z,5.05
2022-10-22T00:10:45.892Z,5.40
2022-10-22T00:13:14.330Z,5.47
2022-10-22T00:15:40.756Z,5.18
2022-10-22T00:18:07.306Z,4.93
2022-10-22T00:20:33.837Z,5.32
2022-10-22T00:23:00.237Z,5.13
2022-10-22T00:25:26.828Z,5.82
2022-10-22T00:27:53.365Z,5.68
2022-10-22T00:30:19.859Z,5.20
2022-10-22T00:32:46.298Z,5.45
2022-10-22T00:35:12.802Z,5.05
2022-10-22T00:37:39.382Z,4.85
2022-10-22T00:40:06.289Z,4.45
2022-10-22T00:42:32.721Z,4.97
2022-10-22T00:45:11.395Z,4.70
2022-10-22T00:48:08.797Z,4.50
2022-10-22T00:50:45.555Z,4.65
2022-10-22T00:53:18.891Z,4.30
2022-10-22T00:55:47.616Z,4.75
2022-10-22T00:58:14.911Z,4.90
2022-10-22T01:00:41.713Z,4.28
2022-10-22T01:03:08.459Z,4.00
2022-10-22T01:05:51.064Z,4.20
2022-10-22T01:08:52.029Z,4.72
2022-10-22T01:11:27.875Z,4.10
2022-10-22T01:14:04.841Z,4.20
2022-10-22T01:16:40.213Z,4.32
2022-10-22T01:19:34.652Z,3.80
2022-10-22T01:22:11.102Z,4.35
2022-10-22T01:24:48.670Z,4.40
2022-10-22T01:27:44.715Z,4.65
2022-10-22T01:30:13.870Z,4.40
2022-10-22T01:32:48.762Z,4.30
2022-10-22T01:35:19.530Z,4.00
2022-10-22T01:37:50.781Z,4.10
2022-10-22T01:40:18.201Z,3.78
2022-10-22T01:42:58.472Z,3.97
2022-10-22T01:45:25.358Z,4.05
2022-10-22T01:48:12.149Z,4.00
2022-10-22T01:50:53.429Z,4.00
2022-10-22T01:53:46.629Z,4.32
2022-10-22T01:56:17.331Z,4.30
2022-10-22T01:58:59.367Z,3.88
2022-10-22T02:01:44.562Z,3.92
2022-10-22T02:04:20.703Z,3.90
2022-10-22T02:06:50.034Z,3.83
2022-10-22T02:09:20.032Z,3.75
2022-10-22T02:11:47.671Z,3.58
2022-10-22T02:14:16.051Z,4.00
2022-10-22T02:16:47.814Z,3.75
2022-10-22T02:19:19.072Z,3.90
2022-10-22T02:21:45.830Z,4.00
2022-10-22T02:24:12.434Z,4.05
2022-10-22T02:26:43.686Z,3.90
2022-10-22T02:29:15.221Z,4.15
2022-10-22T02:31:44.638Z,4.35
2022-10-22T02:34:17.336Z,3.85
2022-10-22T02:36:48.056Z,3.63
2022-10-22T02:39:19.131Z,4.00
2022-10-22T02:41:45.650Z,3.80
2022-10-22T02:44:12.080Z,3.60
2022-10-22T02:46:40.070Z,3.40
2022-10-22T02:49:06.967Z,3.53
2022-10-22T02:51:33.385Z,3.63
2022-10-22T02:53:59.790Z,3.42
2022-10-22T02:56:26.478Z,3.75
2022-10-22T02:58:52.921Z,3.63
2022-10-22T03:01:19.371Z,3.53
2022-10-22T03:03:45.847Z,3.85
2022-10-22T03:06:12.481Z,3.65
2022-10-22T03:08:38.913Z,3.42
2022-10-22T03:11:05.454Z,4.22
2022-10-22T03:13:31.881Z,3.22
2022-10-22T03:15:58.349Z,3.50
2022-10-22T03:18:24.830Z,4.18
2022-10-22T03:20:59.436Z,3.67
2022-10-22T03:23:25.913Z,3.60
2022-10-22T03:25:52.465Z,3.70
2022-10-22T03:28:18.974Z,3.30
2022-10-22T03:30:45.432Z,4.13
2022-10-22T03:33:11.845Z,3.63
2022-10-22T03:35:44.070Z,3.63
2022-10-22T03:38:10.996Z,3.80
2022-10-22T03:40:37.724Z,3.47
2022-10-22T03:43:04.203Z,3.50
2022-10-22T03:45:30.786Z,4.07
2022-10-22T03:47:57.988Z,3.80
2022-10-22T03:50:24.406Z,3.88
2022-10-22T03:52:50.845Z,4.18
2022-10-22T03:55:17.385Z,3.92
2022-10-22T03:57:43.802Z,3.53
2022-10-22T04:00:10.681Z,3.88
2022-10-22T04:02:37.215Z,3.45
2022-10-22T04:05:03.939Z,3.75
2022-10-22T04:07:30.499Z,3.55
2022-10-22T04:09:56.948Z,3.35
2022-10-22T04:12:23.430Z,3.33
2022-10-22T04:14:49.919Z,3.78
2022-10-22T04:17:16.413Z,4.00
2022-10-22T04:19:42.842Z,4.15
2022-10-22T04:22:09.248Z,3.92
2022-10-22T04:24:35.715Z,3.97
2022-10-22T04:27:02.132Z,3.25
2022-10-22T04:29:28.548Z,3.63
2022-10-22T04:31:54.986Z,3.83
2022-10-22T04:34:21.500Z,3.75
2022-10-22T04:36:48.011Z,3.75
2022-10-22T04:39:14.666Z,3.92
2022-10-22T04:41:41.109Z,3.58
2022-10-22T04:44:11.090Z,3.75
2022-10-22T04:46:42.470Z,3.63
2022-10-22T04:49:08.981Z,3.90
2022-10-22T04:51:35.439Z,3.97
2022-10-22T04:54:01.943Z,3.80
2022-10-22T04:56:30.271Z,4.18
2022-10-22T04:58:59.748Z,4.03
2022-10-22T05:01:28.920Z,4.30
2022-10-22T05:03:57.661Z,4.65
2022-10-22T05:06:24.896Z,4.30
2022-10-22T05:09:00.143Z,3.95
2022-10-22T05:11:29.710Z,3.88
2022-10-22T05:13:57.515Z,4.03
2022-10-22T05:16:24.934Z,4.00
2022-10-22T05:18:51.369Z,4.20
2022-10-22T05:21:19.824Z,3.83
2022-10-22T05:23:48.285Z,4.03
2022-10-22T05:26:18.639Z,4.22
2022-10-22T05:28:45.621Z,3.85
2022-10-22T05:31:13.666Z,4.40
2022-10-22T05:33:40.882Z,3.80
2022-10-22T05:36:09.083Z,3.55
2022-10-22T05:38:35.763Z,3.55
2022-10-22T05:41:04.652Z,3.50
2022-10-22T05:43:31.328Z,3.28
2022-10-22T05:46:05.188Z,3.30
2022-10-22T05:51:05.450Z,3.53
2022-10-22T05:53:33.410Z,3.60
2022-10-22T05:56:05.893Z,3.47
2022-10-22T05:58:32.998Z,3.22
2022-10-22T06:01:09.083Z,3.65
2022-10-22T06:03:35.513Z,3.67
2022-10-22T06:06:17.234Z,3.75
2022-10-22T06:08:51.568Z,3.40
2022-10-22T06:11:24.093Z,3.22
2022-10-22T06:13:51.380Z,3.97
2022-10-22T06:16:17.937Z,4.50
2022-10-22T06:18:44.439Z,4.00
2022-10-22T06:21:13.811Z,4.70
2022-10-22T06:23:41.245Z,4.10
2022-10-22T06:26:08.679Z,4.60
2022-10-22T06:28:36.087Z,4.15
2022-10-22T06:31:03.640Z,4.53
2022-10-22T06:33:32.384Z,4.50
2022-10-22T06:36:14.207Z,4.28
2022-10-22T06:38:41.051Z,4.63
2022-10-22T06:41:11.086Z,4.38
2022-10-22T06:43:37.665Z,4.32
2022-10-22T06:46:07.428Z,4.57
2022-10-22T06:48:36.009Z,3.90
2022-10-22T06:51:04.007Z,3.50
2022-10-22T06:53:31.180Z,4.35
2022-10-22T06:55:57.903Z,4.07
2022-10-22T06:58:24.396Z,4.40
2022-10-22T07:01:01.057Z,4.28
2022-10-22T07:03:27.500Z,3.92
2022-10-22T07:05:53.970Z,3.65
2022-10-22T07:08:20.376Z,3.33
2022-10-22T07:10:46.791Z,3.40
2022-10-22T07:13:13.215Z,3.90
2022-10-22T07:15:39.617Z,3.60
2022-10-22T07:18:06.058Z,4.00
2022-10-22T07:20:32.477Z,3.60
2022-10-22T07:22:58.930Z,3.20
2022-10-22T07:25:25.416Z,3.20
2022-10-22T07:27:52.455Z,3.10
2022-10-22T07:30:18.985Z,3.00
2022-10-22T07:32:45.392Z,2.85
2022-10-22T07:35:11.850Z,3.00
2022-10-22T07:37:38.511Z,3.03
2022-10-22T07:40:05.567Z,3.10
2022-10-22T07:42:31.985Z,2.97
2022-10-22T07:44:58.375Z,3.05
2022-10-22T07:47:24.946Z,2.65
2022-10-22T07:49:51.350Z,2.55
2022-10-22T07:52:17.812Z,2.92
2022-10-22T07:54:44.221Z,3.15
2022-10-22T07:57:10.686Z,2.90
2022-10-22T07:59:37.091Z,2.92
2022-10-22T08:02:03.665Z,2.60
2022-10-22T08:04:30.043Z,2.95
2022-10-22T08:06:56.450Z,2.50
2022-10-22T08:09:22.969Z,2.83
2022-10-22T08:11:49.541Z,2.42
2022-10-22T08:14:16.229Z,2.90
2022-10-22T08:16:42.684Z,2.33
2022-10-22T08:19:09.142Z,2.70
2022-10-22T08:21:35.567Z,2.53
2022-10-22T08:24:02.000Z,2.63
2022-10-22T08:26:28.483Z,2.63
2022-10-22T08:28:54.876Z,2.92
2022-10-22T08:31:21.310Z,2.53
2022-10-22T08:33:48.176Z,2.38
2022-10-22T08:36:14.569Z,2.60
2022-10-22T08:38:41.028Z,2.42
2022-10-22T08:41:15.802Z,2.65
2022-10-22T08:44:00.662Z,2.42
2022-10-22T08:46:52.596Z,2.17
2022-10-22T08:49:29.620Z,2.50
2022-10-22T08:51:58.232Z,2.15
2022-10-22T08:54:58.763Z,2.13
2022-10-22T08:57:51.343Z,2.35
2022-10-22T09:00:28.655Z,1.90
2022-10-22T09:03:20.541Z,2.20
2022-10-22T09:05:47.037Z,2.03
2022-10-22T09:08:16.086Z,2.30
2022-10-22T09:10:48.100Z,2.17
2022-10-22T09:13:19.718Z,2.42
2022-10-22T09:15:51.171Z,2.00
2022-10-22T09:18:35.187Z,2.20
2022-10-22T09:21:14.357Z,1.90
2022-10-22T09:23:43.922Z,2.17
2022-10-22T09:26:15.541Z,2.45
2022-10-22T09:28:42.791Z,2.20
2022-10-22T09:31:13.768Z,2.65
2022-10-22T09:33:42.464Z,2.28
2022-10-22T09:36:15.781Z,2.42
2022-10-22T09:38:47.882Z,2.20
2022-10-22T09:41:15.043Z,2.33
2022-10-22T09:43:41.445Z,2.15
2022-10-22T09:46:21.286Z,1.98
2022-10-22T09:48:51.698Z,2.40
2022-10-22T09:51:51.118Z,2.30
2022-10-22T09:54:39.537Z,2.72
2022-10-22T09:57:17.555Z,2.08
2022-10-22T09:59:48.003Z,2.40
2022-10-22T10:02:33.556Z,2.00
2022-10-22T10:05:04.813Z,2.33
2022-10-22T10:07:32.749Z,2.20
2022-10-22T10:09:59.505Z,2.33
2022-10-22T10:15:24.896Z,2.60
2022-10-22T10:18:00.999Z,2.17
2022-10-22T10:20:47.617Z,2.10
2022-10-22T10:23:26.225Z,2.22
2022-10-22T10:26:08.551Z,2.90
2022-10-22T10:28:37.755Z,1.92
2022-10-22T10:31:34.446Z,2.05
2022-10-22T10:34:28.749Z,1.80
2022-10-22T10:37:32.799Z,2.00
2022-10-22T10:40:28.708Z,1.77
2022-10-22T10:43:13.613Z,2.20
2022-10-22T10:48:52.819Z,1.80
2022-10-22T10:51:57.463Z,1.67
2022-10-22T10:54:45.505Z,1.88
2022-10-22T10:57:48.987Z,1.83
2022-10-22T11:00:20.162Z,1.90
2022-10-22T11:02:58.670Z,1.38
2022-10-22T11:05:37.592Z,2.05
2022-10-22T11:08:20.882Z,1.85
2022-10-22T11:13:53.215Z,1.77
2022-10-22T11:16:36.840Z,1.90
2022-10-22T11:19:15.508Z,1.77
2022-10-22T11:22:26.778Z,1.77
2022-10-22T11:25:05.794Z,1.85
2022-10-22T11:27:53.473Z,1.90
2022-10-22T11:30:22.851Z,1.80
2022-10-22T11:32:56.129Z,1.92
2022-10-22T11:35:26.766Z,1.98
2022-10-22T11:37:56.156Z,1.95
2022-10-22T11:40:28.353Z,1.73
2022-10-22T11:43:06.872Z,1.83
2022-10-22T11:45:38.622Z,1.80
2022-10-22T11:48:11.102Z,1.70
2022-10-22T11:51:00.376Z,1.48
2022-10-22T11:53:35.433Z,1.70
2022-10-22T11:56:24.269Z,1.70
2022-10-22T11:58:53.965Z,2.03
2022-10-22T12:01:24.518Z,1.98
2022-10-22T12:04:14.087Z,1.70
2022-10-22T12:07:01.473Z,1.55
2022-10-22T12:09:32.322Z,1.60
2022-10-22T12:12:10.563Z,1.80
2022-10-22T12:14:55.095Z,2.00
2022-10-22T12:17:22.342Z,2.65
2022-10-22T12:19:50.813Z,2.25
2022-10-22T12:22:21.479Z,2.50
2022-10-22T12:24:57.190Z,2.42
2022-10-22T12:27:30.072Z,2.50
2022-10-22T12:29:58.593Z,2.42
2022-10-22T12:32:35.250Z,2.60
2022-10-22T12:35:07.065Z,2.40
2022-10-22T12:37:37.021Z,2.22
2022-10-22T12:40:26.306Z,2.10
2022-10-22T12:42:56.037Z,2.60
2022-10-22T12:45:23.628Z,2.17
2022-10-22T12:47:55.446Z,1.95
2022-10-22T12:50:30.645Z,2.78
2022-10-22T12:52:57.085Z,2.10
2022-10-22T12:55:26.193Z,2.13
2022-10-22T12:57:53.118Z,2.10
2022-10-22T13:00:20.771Z,2.25
2022-10-22T13:02:47.712Z,2.20
2022-10-22T13:05:21.293Z,2.17
2022-10-22T13:07:53.962Z,2.17
2022-10-22T13:10:32.000Z,2.03
2022-10-22T13:12:59.149Z,2.25
2022-10-22T13:15:28.333Z,1.90
2022-10-22T13:18:25.120Z,2.33
2022-10-22T13:20:57.553Z,2.10
2022-10-22T13:23:26.563Z,2.17
2022-10-22T13:26:14.086Z,1.95
2022-10-22T13:28:41.453Z,2.00
2022-10-22T13:31:24.700Z,2.30
2022-10-22T13:33:56.103Z,1.95
2022-10-22T13:36:23.736Z,2.10
2022-10-22T13:38:50.581Z,2.08
2022-10-22T13:41:27.638Z,1.90
2022-10-22T13:43:55.306Z,2.10
2022-10-22T13:46:23.029Z,2.72
2022-10-22T13:48:52.543Z,2.28
2022-10-22T13:51:24.926Z,2.15
2022-10-22T13:53:53.376Z,2.03
2022-10-22T13:56:21.789Z,2.22
2022-10-22T13:58:48.664Z,2.20
2022-10-22T14:01:27.329Z,2.00
2022-10-22T14:03:57.946Z,2.00
2022-10-22T14:06:28.783Z,2.47
2022-10-22T14:09:03.716Z,1.92
2022-10-22T14:11:32.587Z,2.20
2022-10-22T14:13:59.114Z,1.95
2022-10-22T14:16:28.580Z,2.28
2022-10-22T14:18:55.899Z,2.20
2022-10-22T14:21:22.732Z,2.10
2022-10-22T14:23:51.687Z,2.70
2022-10-22T14:26:32.033Z,1.90
2022-10-22T14:29:15.148Z,1.95
2022-10-22T14:31:44.339Z,2.38
2022-10-22T14:34:13.596Z,2.53
2022-10-22T14:36:40.235Z,2.08
2022-10-22T14:39:06.774Z,2.05
2022-10-22T14:41:33.362Z,2.00
2022-10-22T14:44:00.097Z,1.80
2022-10-22T14:46:26.592Z,1.92
2022-10-22T14:48:53.090Z,1.83
2022-10-22T14:51:21.082Z,2.03
2022-10-22T14:53:48.092Z,1.85
2022-10-22T14:56:16.787Z,2.00
2022-10-22T14:58:43.731Z,1.90
2022-10-22T15:01:10.225Z,2.42
2022-10-22T15:03:36.985Z,2.20
2022-10-22T15:06:04.548Z,2.30
2022-10-22T15:08:31.222Z,2.28
2022-10-22T15:11:06.302Z,1.95
2022-10-22T15:13:33.547Z,2.50
2022-10-22T15:16:00.457Z,1.73
2022-10-22T15:18:28.025Z,2.35
2022-10-22T15:20:56.199Z,2.03
2022-10-22T15:23:22.704Z,1.85
2022-10-22T15:25:49.125Z,1.77
2022-10-22T15:28:18.059Z,2.15
2022-10-22T15:30:44.467Z,2.00
2022-10-22T15:33:11.048Z,1.70
2022-10-22T15:35:37.453Z,2.42
2022-10-22T15:38:06.565Z,1.67
2022-10-22T15:40:33.042Z,2.17
2022-10-22T15:42:59.438Z,1.95
2022-10-22T15:45:25.967Z,2.08
2022-10-22T15:47:52.360Z,2.40
2022-10-22T15:50:18.853Z,2.10
2022-10-22T15:52:45.356Z,2.00
2022-10-22T15:57:43.494Z,2.55
2022-10-22T16:00:10.879Z,2.30
2022-10-22T16:02:37.295Z,2.17
2022-10-22T16:05:03.887Z,2.33
2022-10-22T16:07:30.690Z,2.25
2022-10-22T16:09:58.793Z,2.13
2022-10-22T16:12:25.450Z,2.60
2022-10-22T16:14:52.046Z,2.30
2022-10-22T16:17:18.710Z,2.30
2022-10-22T16:19:45.164Z,2.92
2022-10-22T16:22:13.793Z,3.08
2022-10-22T16:24:42.923Z,2.63
2022-10-22T16:27:10.285Z,2.55
2022-10-22T16:29:38.935Z,3.28
2022-10-22T16:32:05.700Z,3.17
2022-10-22T16:34:32.146Z,3.30
2022-10-22T16:36:58.690Z,2.58
2022-10-22T16:39:25.229Z,3.10
2022-10-22T16:41:51.815Z,3.00
2022-10-22T16:44:21.333Z,3.17
2022-10-22T16:46:47.802Z,2.72
2022-10-22T16:49:14.250Z,3.33
2022-10-22T16:51:40.693Z,3.00
2022-10-22T16:54:09.855Z,3.33
2022-10-22T16:56:38.709Z,3.80
2022-10-22T16:59:06.165Z,3.70
2022-10-22T17:01:35.682Z,3.08
2022-10-22T17:04:04.468Z,3.00
2022-10-22T17:06:30.961Z,3.10
2022-10-22T17:08:57.538Z,3.40
2022-10-22T17:11:24.860Z,3.50
2022-10-22T17:13:53.900Z,3.78
2022-10-22T17:16:22.846Z,2.83
2022-10-22T17:18:49.535Z,2.90
2022-10-22T17:21:16.745Z,4.00
2022-10-22T17:23:43.180Z,3.97
2022-10-22T17:26:15.609Z,4.00
2022-10-22T17:28:42.050Z,3.97
2022-10-22T17:31:15.081Z,3.60
2022-10-22T17:33:41.500Z,3.40
2022-10-22T17:36:10.863Z,3.78
2022-10-22T17:38:38.802Z,3.50
2022-10-22T17:41:06.954Z,3.08
2022-10-22T17:43:36.815Z,3.30
2022-10-22T17:46:07.879Z,3.15
2022-10-22T17:48:34.771Z,3.60
2022-10-22T17:51:01.236Z,3.60
2022-10-22T17:53:27.884Z,3.20
2022-10-22T17:56:01.856Z,3.58
2022-10-22T17:58:30.437Z,3.10
2022-10-22T18:00:57.977Z,3.22
2022-10-22T18:03:25.051Z,3.13
2022-10-22T18:05:51.459Z,3.03
2022-10-22T18:08:17.882Z,3.08
2022-10-22T18:10:44.409Z,2.63
2022-10-22T18:13:10.890Z,2.55
2022-10-22T18:15:37.377Z,3.08
2022-10-22T18:18:04.032Z,3.00
2022-10-22T18:20:31.026Z,2.83
2022-10-22T18:22:57.454Z,3.45
2022-10-22T18:25:24.006Z,2.63
2022-10-22T18:27:50.492Z,2.80
2022-10-22T18:30:16.932Z,2.95
2022-10-22T18:32:43.321Z,2.60
2022-10-22T18:35:09.729Z,2.72
2022-10-22T18:37:36.488Z,2.60
2022-10-22T18:40:05.228Z,2.95
2022-10-22T18:42:33.633Z,2.70
2022-10-22T18:45:01.963Z,2.85
2022-10-22T18:47:28.402Z,2.83
2022-10-22T18:49:54.809Z,2.80
2022-10-22T18:52:21.294Z,2.50
2022-10-22T18:54:47.705Z,3.58
2022-10-22T18:57:14.169Z,2.90
2022-10-22T18:59:40.643Z,2.70
2022-10-22T19:02:08.937Z,3.17
2022-10-22T19:04:37.098Z,3.60
2022-10-22T19:07:07.321Z,3.50
2022-10-22T19:09:34.579Z,4.00
2022-10-22T19:12:01.110Z,3.60
2022-10-22T19:14:27.614Z,2.63
2022-10-22T19:16:54.098Z,3.10
2022-10-22T19:19:21.898Z,3.63
2022-10-22T19:21:49.093Z,3.50
2022-10-22T19:24:16.892Z,3.58
2022-10-22T19:26:43.800Z,2.65
2022-10-22T19:29:11.029Z,2.60
2022-10-22T19:31:38.256Z,2.88
2022-10-22T19:34:05.047Z,3.13
2022-10-22T19:36:32.703Z,2.70
2022-10-22T19:39:00.135Z,2.85
2022-10-22T19:41:28.934Z,2.50
2022-10-22T19:43:56.519Z,3.80
2022-10-22T19:46:25.617Z,2.70
2022-10-22T19:48:52.836Z,4.45
2022-10-22T19:51:21.533Z,3.17
2022-10-22T19:53:49.059Z,2.92
2022-10-22T19:56:20.541Z,4.05
2022-10-22T19:58:47.194Z,3.00
2022-10-22T20:01:16.698Z,3.38
2022-10-22T20:03:43.598Z,3.75
2022-10-22T20:06:11.813Z,3.90
2022-10-22T20:08:38.802Z,3.05
2022-10-22T20:11:07.414Z,3.03
2022-10-22T20:13:35.240Z,3.88
2022-10-22T20:16:01.830Z,2.70
2022-10-22T20:18:28.535Z,3.10
2022-10-22T20:20:55.173Z,2.97
2022-10-22T20:23:21.696Z,2.92
2022-10-22T20:25:48.224Z,3.28
2022-10-22T20:28:15.474Z,4.18
2022-10-22T20:30:45.852Z,4.18
2022-10-22T20:33:13.104Z,4.40
2022-10-22T20:35:39.680Z,3.10
2022-10-22T20:38:08.051Z,2.70
2022-10-22T20:40:34.817Z,3.38
2022-10-22T20:43:01.917Z,3.92
2022-10-22T20:45:28.972Z,3.05
2022-10-22T20:48:02.614Z,3.20
2022-10-22T20:50:32.018Z,3.22
2022-10-22T20:52:59.099Z,3.97
2022-10-22T20:55:26.040Z,4.13
2022-10-22T20:57:52.467Z,3.55
2022-10-22T21:00:18.951Z,3.53
2022-10-22T21:02:45.465Z,3.40
2022-10-22T21:05:11.969Z,3.30
2022-10-22T21:07:38.763Z,3.20
2022-10-22T21:10:05.931Z,4.10
2022-10-22T21:12:32.368Z,3.85
2022-10-22T21:14:58.810Z,3.85
2022-10-22T21:17:25.190Z,3.50
2022-10-22T21:19:51.754Z,4.85
2022-10-22T21:22:18.182Z,3.50
2022-10-22T21:24:44.598Z,3.20
2022-10-22T21:27:11.014Z,3.00
2022-10-22T21:29:37.548Z,4.30
2022-10-22T21:32:04.115Z,5.15
2022-10-22T21:34:33.254Z,4.20
2022-10-22T21:37:01.826Z,3.95
2022-10-22T21:39:28.841Z,5.05
2022-10-22T21:41:55.237Z,5.60
2022-10-22T21:44:21.650Z,5.03
2022-10-22T21:46:48.050Z,4.10
2022-10-22T21:49:14.639Z,5.82
2022-10-22T21:51:43.110Z,3.90
2022-10-22T21:54:09.545Z,4.38
2022-10-22T21:56:36.435Z,3.67
2022-10-22T21:59:03.881Z,4.03
2022-10-22T22:01:30.654Z,4.55
2022-10-22T22:03:57.226Z,4.97
2022-10-22T22:06:28.354Z,4.95
2022-10-22T22:08:57.750Z,4.88
2022-10-22T22:11:25.919Z,4.68
2022-10-22T22:13:53.917Z,5.50
2022-10-22T22:16:29.506Z,4.75
2022-10-22T22:18:58.444Z,4.53
2022-10-22T22:21:25.062Z,4.35
2022-10-22T22:23:51.765Z,5.07
2022-10-22T22:26:25.278Z,5.28
2022-10-22T22:28:55.071Z,4.75
2022-10-22T22:31:33.030Z,5.03
2022-10-22T22:34:08.375Z,4.82
2022-10-22T22:36:37.482Z,5.05
2022-10-22T22:39:06.032Z,5.30
2022-10-22T22:41:32.843Z,4.90
2022-10-22T22:43:59.467Z,4.53
2022-10-22T22:46:26.017Z,5.00
2022-10-22T22:48:52.504Z,5.60
2022-10-22T22:51:18.971Z,6.35
2022-10-22T22:53:45.802Z,5.28
2022-10-22T22:56:18.256Z,5.00
2022-10-22T22:58:45.166Z,4.28
2022-10-22T23:01:30.503Z,4.88
2022-10-22T23:03:59.390Z,4.90
2022-10-22T23:06:36.137Z,4.93
2022-10-22T23:09:04.545Z,4.55
2022-10-22T23:11:31.136Z,4.60
2022-10-22T23:14:00.107Z,5.05
2022-10-22T23:16:30.193Z,5.05
2022-10-22T23:18:58.242Z,5.00
2022-10-22T23:21:29.604Z,4.95
2022-10-22T23:23:59.111Z,4.63
2022-10-22T23:26:34.354Z,4.85
2022-10-22T23:29:02.555Z,4.32
2022-10-22T23:31:29.346Z,4.18
2022-10-22T23:33:55.774Z,5.10
2022-10-22T23:36:22.193Z,5.38
2022-10-22T23:38:50.257Z,5.60
2022-10-22T23:41:17.315Z,6.05
2022-10-22T23:43:43.798Z,6.07
2022-10-22T23:46:11.838Z,5.85
2022-10-22T23:48:41.623Z,5.43
2022-10-22T23:51:14.283Z,4.93
2022-10-22T23:53:41.829Z,4.55
2022-10-22T23:56:14.159Z,4.53
2022-10-22T23:58:41.023Z,4.95
